createdAt,value
2017-04-21T00:00:18.235Z,11.75
2017-04-21T00:01:23.900Z,12.13
2017-04-21T00:02:28.580Z,13.57
2017-04-21T00:03:34.979Z,11.50
2017-04-21T00:04:39.665Z,12.07
2017-04-21T00:05:45.212Z,11.90
2017-04-21T00:06:49.994Z,11.12
2017-04-21T00:07:55.616Z,11.05
2017-04-21T00:09:01.082Z,11.10
2017-04-21T00:10:06.692Z,11.02
2017-04-21T00:11:13.109Z,11.50
2017-04-21T00:12:18.652Z,10.98
2017-04-21T00:13:24.397Z,11.72
2017-04-21T00:14:29.921Z,12.83
2017-04-21T00:15:36.236Z,11.08
2017-04-21T00:16:41.427Z,10.52
2017-04-21T00:17:47.673Z,11.37
2017-04-21T00:18:53.162Z,11.57
2017-04-21T00:19:58.864Z,10.18
2017-04-21T00:21:04.421Z,10.98
2017-04-21T00:22:09.989Z,11.37
2017-04-21T00:23:14.901Z,13.98
2017-04-21T00:24:21.278Z,11.32
2017-04-21T00:25:26.699Z,12.03
2017-04-21T00:26:31.500Z,12.13
2017-04-21T00:27:38.017Z,12.98
2017-04-21T00:28:43.513Z,12.97
2017-04-21T00:29:48.998Z,11.28
2017-04-21T00:30:54.558Z,11.55
2017-04-21T00:32:00.204Z,15.83
2017-04-21T00:33:06.045Z,12.30
2017-04-21T00:34:11.609Z,14.50
2017-04-21T00:35:17.196Z,13.22
2017-04-21T00:36:22.029Z,13.58
2017-04-21T00:37:27.556Z,13.53
2017-04-21T00:38:33.201Z,16.82
2017-04-21T00:39:37.868Z,15.10
2017-04-21T00:40:44.933Z,11.77
2017-04-21T00:41:50.839Z,13.55
2017-04-21T00:42:56.525Z,10.35
2017-04-21T00:44:02.269Z,10.33
2017-04-21T00:45:07.877Z,10.55
2017-04-21T00:46:13.429Z,10.68
2017-04-21T00:47:18.989Z,10.38
2017-04-21T00:48:24.708Z,9.90
2017-04-21T00:49:30.433Z,10.23
2017-04-21T00:50:35.974Z,10.27
2017-04-21T00:51:40.798Z,9.98
2017-04-21T00:52:47.182Z,10.65
2017-04-21T00:53:52.826Z,10.42
2017-04-21T00:54:57.541Z,10.02
2017-04-21T00:56:03.162Z,11.23
2017-04-21T00:57:09.488Z,10.20
2017-04-21T00:58:15.083Z,10.22
2017-04-21T00:59:20.789Z,10.53
2017-04-21T01:00:25.597Z,10.50
2017-04-21T01:01:32.001Z,11.50
2017-04-21T01:02:37.613Z,12.27
2017-04-21T01:03:42.432Z,11.43
2017-04-21T01:04:48.748Z,12.65
2017-04-21T01:05:53.687Z,10.97
2017-04-21T01:06:59.928Z,13.35
2017-04-21T01:08:05.482Z,13.32
2017-04-21T01:09:11.105Z,12.68
2017-04-21T01:10:16.633Z,10.58
2017-04-21T01:11:23.354Z,11.33
2017-04-21T01:12:28.900Z,11.47
2017-04-21T01:13:33.893Z,11.68
2017-04-21T01:14:40.240Z,10.72
2017-04-21T01:15:45.908Z,10.98
2017-04-21T01:16:51.469Z,11.50
2017-04-21T01:17:57.021Z,12.37
2017-04-21T01:19:02.648Z,10.38
2017-04-21T01:20:07.732Z,11.22
2017-04-21T01:21:13.925Z,12.50
2017-04-21T01:22:19.666Z,12.68
2017-04-21T01:23:25.092Z,11.15
2017-04-21T01:24:30.625Z,12.82
2017-04-21T01:25:35.418Z,12.42
2017-04-21T01:26:41.812Z,11.45
2017-04-21T01:27:46.768Z,11.82
2017-04-21T01:28:53.001Z,11.58
2017-04-21T01:29:58.521Z,11.93
2017-04-21T01:31:04.202Z,11.63
2017-04-21T01:32:09.773Z,11.87
2017-04-21T01:33:15.460Z,12.03
2017-04-21T01:34:21.255Z,11.97
2017-04-21T01:35:26.615Z,11.85
2017-04-21T01:36:31.490Z,11.98
2017-04-21T01:37:37.841Z,13.67
2017-04-21T01:38:43.477Z,12.20
2017-04-21T01:39:49.093Z,12.05
2017-04-21T01:40:54.670Z,12.42
2017-04-21T01:42:00.325Z,11.57
2017-04-21T01:43:07.021Z,11.65
2017-04-21T01:44:13.569Z,12.32
2017-04-21T01:45:19.072Z,12.37
2017-04-21T01:46:24.700Z,12.75
2017-04-21T01:47:30.283Z,11.97
2017-04-21T01:48:36.020Z,13.03
2017-04-21T01:49:40.958Z,11.47
2017-04-21T01:50:46.512Z,12.50
2017-04-21T01:51:51.949Z,12.33
2017-04-21T01:52:57.505Z,12.83
2017-04-21T01:54:03.111Z,11.63
2017-04-21T01:55:08.728Z,13.35
2017-04-21T01:56:14.301Z,10.57
2017-04-21T01:57:19.763Z,12.50
2017-04-21T01:58:26.077Z,11.23
2017-04-21T01:59:32.378Z,12.63
2017-04-21T02:00:37.947Z,12.68
2017-04-21T02:01:44.219Z,11.55
2017-04-21T02:02:49.737Z,12.52
2017-04-21T02:03:55.405Z,10.93
2017-04-21T02:05:00.832Z,10.55
2017-04-21T02:06:05.840Z,10.42
2017-04-21T02:07:12.037Z,10.52
2017-04-21T02:08:17.730Z,12.08
2017-04-21T02:09:23.333Z,12.15
2017-04-21T02:10:28.885Z,10.52
2017-04-21T02:11:33.554Z,11.87
2017-04-21T02:12:39.923Z,10.32
2017-04-21T02:13:44.602Z,10.55
2017-04-21T02:14:50.925Z,10.78
2017-04-21T02:15:56.468Z,9.48
2017-04-21T02:17:01.372Z,10.20
2017-04-21T02:18:06.888Z,9.97
2017-04-21T02:19:12.489Z,10.83
2017-04-21T02:20:17.925Z,10.57
2017-04-21T02:21:23.537Z,9.95
2017-04-21T02:22:29.293Z,10.73
2017-04-21T02:23:34.679Z,10.17
2017-04-21T02:24:40.233Z,11.62
2017-04-21T02:25:45.700Z,10.37
2017-04-21T02:26:50.468Z,11.62
2017-04-21T02:27:56.043Z,11.23
2017-04-21T02:29:01.636Z,12.00
2017-04-21T02:30:07.200Z,11.68
2017-04-21T02:31:13.452Z,11.40
2017-04-21T02:32:19.113Z,11.48
2017-04-21T02:33:24.741Z,11.87
2017-04-21T02:34:30.330Z,11.83
2017-04-21T02:35:36.064Z,11.30
2017-04-21T02:36:41.565Z,12.67
2017-04-21T02:37:47.297Z,12.23
2017-04-21T02:38:52.940Z,11.65
2017-04-21T02:39:58.494Z,11.63
2017-04-21T02:41:04.076Z,11.95
2017-04-21T02:42:09.536Z,11.22
2017-04-21T02:43:15.421Z,11.37
2017-04-21T02:44:21.863Z,10.77
2017-04-21T02:45:27.383Z,11.23
2017-04-21T02:46:33.820Z,11.58
2017-04-21T02:47:39.427Z,11.70
2017-04-21T02:48:44.953Z,12.22
2017-04-21T02:49:50.549Z,12.58
2017-04-21T02:50:56.113Z,13.42
2017-04-21T02:52:01.685Z,12.25
2017-04-21T02:53:07.713Z,12.93
2017-04-21T02:54:13.241Z,12.52
2017-04-21T02:55:18.835Z,11.48
2017-04-21T02:56:24.482Z,13.32
2017-04-21T02:57:30.864Z,11.13
2017-04-21T02:58:35.564Z,12.13
2017-04-21T02:59:41.020Z,12.65
2017-04-21T03:00:46.790Z,12.38
2017-04-21T03:01:52.225Z,11.87
2017-04-21T03:02:57.838Z,11.98
2017-04-21T03:04:03.369Z,12.53
2017-04-21T03:05:09.104Z,13.27
2017-04-21T03:06:13.890Z,13.13
2017-04-21T03:07:20.176Z,13.48
2017-04-21T03:08:25.848Z,12.87
2017-04-21T03:09:30.620Z,13.00
2017-04-21T03:10:37.013Z,12.62
2017-04-21T03:11:43.728Z,12.33
2017-04-21T03:12:48.434Z,12.80
2017-04-21T03:13:54.849Z,12.65
2017-04-21T03:15:00.299Z,11.77
2017-04-21T03:16:05.945Z,15.47
2017-04-21T03:17:11.516Z,14.57
2017-04-21T03:18:16.377Z,12.63
2017-04-21T03:19:21.881Z,12.13
2017-04-21T03:20:27.375Z,11.57
2017-04-21T03:21:32.821Z,12.23
2017-04-21T03:22:37.772Z,11.13
2017-04-21T03:23:43.290Z,11.95
2017-04-21T03:24:47.946Z,11.87
2017-04-21T03:25:54.334Z,13.98
2017-04-21T03:26:59.225Z,12.17
2017-04-21T03:28:04.733Z,13.92
2017-04-21T03:29:10.288Z,13.63
2017-04-21T03:30:15.921Z,13.62
2017-04-21T03:31:21.457Z,13.88
2017-04-21T03:32:26.876Z,12.43
2017-04-21T03:33:32.500Z,14.47
2017-04-21T03:34:38.098Z,13.82
2017-04-21T03:35:43.664Z,14.20
2017-04-21T03:36:49.032Z,17.37
2017-04-21T03:37:54.644Z,14.85
2017-04-21T03:39:00.224Z,14.25
2017-04-21T03:40:05.820Z,14.37
2017-04-21T03:41:11.308Z,13.33
2017-04-21T03:42:16.236Z,14.10
2017-04-21T03:43:21.714Z,14.65
2017-04-21T03:44:26.428Z,14.28
2017-04-21T03:45:32.709Z,13.13
2017-04-21T03:46:38.234Z,13.90
2017-04-21T03:47:43.126Z,13.70
2017-04-21T03:48:49.524Z,13.95
2017-04-21T03:49:55.168Z,14.07
2017-04-21T03:51:00.743Z,13.25
2017-04-21T03:52:06.324Z,13.57
2017-04-21T03:53:12.009Z,12.72
2017-04-21T03:54:18.246Z,12.78
2017-04-21T03:55:24.418Z,12.22
2017-04-21T03:56:29.115Z,13.52
2017-04-21T03:57:35.468Z,15.35
2017-04-21T03:58:41.081Z,14.05
2017-04-21T03:59:46.688Z,13.98
2017-04-21T04:00:51.552Z,12.62
2017-04-21T04:01:57.843Z,14.30
2017-04-21T04:03:03.460Z,14.63
2017-04-21T04:04:09.156Z,14.38
2017-04-21T04:05:14.732Z,14.87
2017-04-21T04:06:20.236Z,13.08
2017-04-21T04:07:25.660Z,14.00
2017-04-21T04:08:31.260Z,14.28
2017-04-21T04:09:36.876Z,23.57
2017-04-21T04:10:42.557Z,36.80
2017-04-21T04:11:49.140Z,40.33
2017-04-21T04:12:53.929Z,30.85
2017-04-21T04:14:00.240Z,35.97
2017-04-21T04:15:05.237Z,33.90
2017-04-21T04:16:11.556Z,27.28
2017-04-21T04:17:17.242Z,28.38
2017-04-21T04:18:22.045Z,25.68
2017-04-21T04:19:28.446Z,47.25
2017-04-21T04:20:34.204Z,33.37
2017-04-21T04:21:39.838Z,24.62
2017-04-21T04:22:45.528Z,19.90
2017-04-21T04:23:51.032Z,17.50
2017-04-21T04:24:57.028Z,17.10
2017-04-21T04:26:01.641Z,16.35
2017-04-21T04:27:07.233Z,16.77
2017-04-21T04:28:12.772Z,15.75
2017-04-21T04:29:18.320Z,16.53
2017-04-21T04:30:23.909Z,16.50
2017-04-21T04:31:29.496Z,15.72
2017-04-21T04:32:35.073Z,15.08
2017-04-21T04:33:40.801Z,16.83
2017-04-21T04:34:46.432Z,15.10
2017-04-21T04:35:52.020Z,15.82
2017-04-21T04:36:57.493Z,14.42
2017-04-21T04:38:03.066Z,14.52
2017-04-21T04:39:08.764Z,15.00
2017-04-21T04:40:14.497Z,14.95
2017-04-21T04:41:19.228Z,16.67
2017-04-21T04:42:24.628Z,14.23
2017-04-21T04:43:30.217Z,15.02
2017-04-21T04:44:36.772Z,14.42
2017-04-21T04:45:43.220Z,16.55
2017-04-21T04:46:48.898Z,14.90
2017-04-21T04:47:53.709Z,14.63
2017-04-21T04:49:00.208Z,14.43
2017-04-21T04:50:05.800Z,16.10
2017-04-21T04:51:11.478Z,15.37
2017-04-21T04:52:16.439Z,15.38
2017-04-21T04:53:22.638Z,17.28
2017-04-21T04:54:28.146Z,15.90
2017-04-21T04:55:33.921Z,14.60
2017-04-21T04:56:39.421Z,15.03
2017-04-21T04:57:45.054Z,14.55
2017-04-21T04:58:50.581Z,15.62
2017-04-21T04:59:56.235Z,16.22
2017-04-21T05:01:01.954Z,16.73
2017-04-21T05:02:07.496Z,15.42
2017-04-21T05:03:12.949Z,16.20
2017-04-21T05:04:18.562Z,14.55
2017-04-21T05:05:23.637Z,14.48
2017-04-21T05:06:29.194Z,16.07
2017-04-21T05:07:35.580Z,16.05
2017-04-21T05:08:41.034Z,15.95
2017-04-21T05:09:46.558Z,16.57
2017-04-21T05:10:52.012Z,16.13
2017-04-21T05:11:57.682Z,14.95
2017-04-21T05:13:02.751Z,15.15
2017-04-21T05:14:09.428Z,17.13
2017-04-21T05:15:14.889Z,15.33
2017-04-21T05:16:21.302Z,17.20
2017-04-21T05:17:26.957Z,17.67
2017-04-21T05:18:32.521Z,16.15
2017-04-21T05:19:38.841Z,14.78
2017-04-21T05:20:44.418Z,15.40
2017-04-21T05:21:49.317Z,15.77
2017-04-21T05:22:54.905Z,14.22
2017-04-21T05:24:00.533Z,15.10
2017-04-21T05:25:06.073Z,14.37
2017-04-21T05:26:10.981Z,14.78
2017-04-21T05:27:16.580Z,15.58
2017-04-21T05:28:22.989Z,15.13
2017-04-21T05:29:29.368Z,14.55
2017-04-21T05:30:37.693Z,14.12
2017-04-21T05:31:43.167Z,13.83
2017-04-21T05:32:48.066Z,15.17
2017-04-21T05:33:53.725Z,15.17
2017-04-21T05:35:00.106Z,16.62
2017-04-21T05:36:05.724Z,16.03
2017-04-21T05:37:11.216Z,15.58
2017-04-21T05:38:15.917Z,14.00
2017-04-21T05:39:21.533Z,14.67
2017-04-21T05:40:27.985Z,20.18
2017-04-21T05:41:33.509Z,14.87
2017-04-21T05:42:39.261Z,15.72
2017-04-21T05:43:45.209Z,14.33
2017-04-21T05:44:50.107Z,14.58
2017-04-21T05:45:55.615Z,13.68
2017-04-21T05:47:01.110Z,14.83
2017-04-21T05:48:06.629Z,14.23
2017-04-21T05:49:12.221Z,13.35
2017-04-21T05:50:17.369Z,13.03
2017-04-21T05:51:23.640Z,13.97
2017-04-21T05:52:28.265Z,14.25
2017-04-21T05:53:34.660Z,14.02
2017-04-21T05:54:40.133Z,14.65
2017-04-21T05:55:44.939Z,14.28
2017-04-21T05:56:51.197Z,14.23
2017-04-21T05:57:56.779Z,14.02
2017-04-21T05:59:01.721Z,13.65
2017-04-21T06:00:08.017Z,14.70
2017-04-21T06:01:13.562Z,13.67
2017-04-21T06:02:19.008Z,13.70
2017-04-21T06:03:23.778Z,14.38
2017-04-21T06:04:29.204Z,15.35
2017-04-21T06:05:35.474Z,15.37
2017-04-21T06:06:41.101Z,17.40
2017-04-21T06:07:46.795Z,15.43
2017-04-21T06:08:52.405Z,15.78
2017-04-21T06:09:57.404Z,13.83
2017-04-21T06:11:03.775Z,14.83
2017-04-21T06:12:09.396Z,14.72
2017-04-21T06:13:14.930Z,14.62
2017-04-21T06:14:20.492Z,14.55
2017-04-21T06:15:26.118Z,14.70
2017-04-21T06:16:30.750Z,15.28
2017-04-21T06:17:37.922Z,15.58
2017-04-21T06:18:43.830Z,14.13
2017-04-21T06:19:49.290Z,14.90
2017-04-21T06:20:54.909Z,14.82
2017-04-21T06:22:00.363Z,15.03
2017-04-21T06:23:05.991Z,15.10
2017-04-21T06:24:10.813Z,15.57
2017-04-21T06:25:17.126Z,14.38
2017-04-21T06:26:22.682Z,14.73
2017-04-21T06:27:28.361Z,14.17
2017-04-21T06:28:33.192Z,14.90
2017-04-21T06:29:38.785Z,13.37
2017-04-21T06:30:45.117Z,15.48
2017-04-21T06:31:50.828Z,15.55
2017-04-21T06:32:55.689Z,14.68
2017-04-21T06:34:01.306Z,14.62
2017-04-21T06:35:06.030Z,14.80
2017-04-21T06:36:12.499Z,15.22
2017-04-21T06:37:18.022Z,15.18
2017-04-21T06:38:23.549Z,16.78
2017-04-21T06:39:30.342Z,15.58
2017-04-21T06:40:35.156Z,16.28
2017-04-21T06:41:41.597Z,16.42
2017-04-21T06:42:46.233Z,15.43
2017-04-21T06:43:51.852Z,16.50
2017-04-21T06:44:57.469Z,17.78
2017-04-21T06:46:02.312Z,16.10
2017-04-21T06:47:07.945Z,17.72
2017-04-21T06:48:14.321Z,17.98
2017-04-21T06:49:20.085Z,18.18
2017-04-21T06:50:24.821Z,15.48
2017-04-21T06:51:30.317Z,16.37
2017-04-21T06:52:36.758Z,16.45
2017-04-21T06:53:42.436Z,17.82
2017-04-21T06:54:47.269Z,18.23
2017-04-21T06:55:53.660Z,19.63
2017-04-21T06:56:59.081Z,18.80
2017-04-21T06:58:04.818Z,18.80
2017-04-21T06:59:09.654Z,16.53
2017-04-21T07:00:15.982Z,17.95
2017-04-21T07:01:21.641Z,18.93
2017-04-21T07:02:28.142Z,17.80
2017-04-21T07:03:33.793Z,19.03
2017-04-21T07:04:38.926Z,18.42
2017-04-21T07:05:44.423Z,18.00
2017-04-21T07:06:50.963Z,19.17
2017-04-21T07:07:55.751Z,18.32
2017-04-21T07:09:02.148Z,20.00
2017-04-21T07:10:07.838Z,21.33
2017-04-21T07:11:13.430Z,20.10
2017-04-21T07:12:19.876Z,18.27
2017-04-21T07:13:24.739Z,21.77
2017-04-21T07:14:30.930Z,18.53
2017-04-21T07:15:35.841Z,19.90
2017-04-21T07:16:41.454Z,21.40
2017-04-21T07:17:47.189Z,21.02
2017-04-21T07:18:52.778Z,20.60
2017-04-21T07:19:58.411Z,19.58
2017-04-21T07:21:04.036Z,20.72
2017-04-21T07:22:10.345Z,20.25
2017-04-21T07:23:15.293Z,19.35
2017-04-21T07:24:21.577Z,19.68
2017-04-21T07:25:27.146Z,21.17
2017-04-21T07:26:32.824Z,20.33
2017-04-21T07:27:37.634Z,21.58
2017-04-21T07:28:44.061Z,19.27
2017-04-21T07:29:48.800Z,18.97
2017-04-21T07:30:54.429Z,18.77
2017-04-21T07:31:59.976Z,18.40
2017-04-21T07:33:06.307Z,19.80
2017-04-21T07:34:11.907Z,21.35
2017-04-21T07:35:16.557Z,20.45
2017-04-21T07:36:22.076Z,21.10
2017-04-21T07:37:26.965Z,21.53
2017-04-21T07:38:33.221Z,20.03
2017-04-21T07:39:39.729Z,21.38
2017-04-21T07:40:45.253Z,21.35
2017-04-21T07:41:50.914Z,19.97
2017-04-21T07:42:56.505Z,22.15
2017-04-21T07:44:01.387Z,21.35
2017-04-21T07:45:07.663Z,21.53
2017-04-21T07:46:14.825Z,20.10
2017-04-21T07:47:20.525Z,21.40
2017-04-21T07:48:26.063Z,22.53
2017-04-21T07:49:31.591Z,20.87
2017-04-21T07:50:37.171Z,19.13
2017-04-21T07:51:42.730Z,21.83
2017-04-21T07:52:47.510Z,21.63
2017-04-21T07:53:53.964Z,20.92
2017-04-21T07:54:59.649Z,22.13
2017-04-21T07:56:04.525Z,21.65
2017-04-21T07:57:10.981Z,24.50
2017-04-21T07:58:15.689Z,21.52
2017-04-21T07:59:21.912Z,20.93
2017-04-21T08:00:27.509Z,22.70
2017-04-21T08:01:33.108Z,24.33
2017-04-21T08:02:38.744Z,21.60
2017-04-21T08:03:44.493Z,22.50
2017-04-21T08:04:49.189Z,21.93
2017-04-21T08:05:54.930Z,23.50
2017-04-21T08:07:00.585Z,21.95
2017-04-21T08:08:06.699Z,23.03
2017-04-21T08:09:11.409Z,22.20
2017-04-21T08:10:17.005Z,21.60
2017-04-21T08:11:21.742Z,23.25
2017-04-21T08:12:28.268Z,23.80
2017-04-21T08:13:33.936Z,23.60
2017-04-21T08:14:40.216Z,23.77
2017-04-21T08:15:45.899Z,23.45
2017-04-21T08:17:29.440Z,22.77
2017-04-21T08:18:34.500Z,23.82
2017-04-21T08:19:39.808Z,23.05
2017-04-21T08:20:45.449Z,23.25
2017-04-21T08:21:51.920Z,23.27
2017-04-21T08:22:56.909Z,22.15
2017-04-21T08:24:02.418Z,21.18
2017-04-21T08:25:07.905Z,21.78
2017-04-21T08:26:13.492Z,24.18
2017-04-21T08:27:19.164Z,21.60
2017-04-21T08:28:24.749Z,22.38
2017-04-21T08:29:31.198Z,21.93
2017-04-21T08:30:35.920Z,22.80
2017-04-21T08:31:41.335Z,24.35
2017-04-21T08:32:46.956Z,23.17
2017-04-21T08:33:52.596Z,21.88
2017-04-21T08:34:58.143Z,23.43
2017-04-21T08:36:03.678Z,22.25
2017-04-21T08:37:09.329Z,22.95
2017-04-21T08:38:15.642Z,21.77
2017-04-21T08:39:20.432Z,20.53
2017-04-21T08:40:25.951Z,22.27
2017-04-21T08:41:31.385Z,21.80
2017-04-21T08:42:36.861Z,23.88
2017-04-21T08:43:41.802Z,21.95
2017-04-21T08:44:48.290Z,22.57
2017-04-21T08:45:53.704Z,22.48
2017-04-21T08:46:59.491Z,23.18
2017-04-21T08:48:05.805Z,21.93
2017-04-21T08:49:10.884Z,24.58
2017-04-21T08:50:16.521Z,26.12
2017-04-21T08:51:22.042Z,24.55
2017-04-21T08:52:27.713Z,23.78
2017-04-21T08:53:32.463Z,24.45
2017-04-21T08:54:38.085Z,27.18
2017-04-21T08:55:43.774Z,26.85
2017-04-21T08:56:50.100Z,30.60
2017-04-21T08:57:54.980Z,28.75
2017-04-21T08:59:00.617Z,30.45
2017-04-21T09:00:06.196Z,28.22
2017-04-21T09:01:11.882Z,32.33
2017-04-21T09:02:18.141Z,32.03
2017-04-21T09:03:22.908Z,34.00
2017-04-21T09:04:29.286Z,32.45
2017-04-21T09:05:34.942Z,30.58
2017-04-21T09:06:39.908Z,31.93
2017-04-21T09:07:45.476Z,30.63
2017-04-21T09:08:51.174Z,31.65
2017-04-21T09:09:57.243Z,31.85
2017-04-21T09:11:03.057Z,30.90
2017-04-21T09:12:09.700Z,29.48
2017-04-21T09:13:14.482Z,31.07
2017-04-21T09:14:19.986Z,29.48
2017-04-21T09:15:24.717Z,29.62
2017-04-21T09:16:31.205Z,30.57
2017-04-21T09:17:36.158Z,30.12
2017-04-21T09:18:41.883Z,29.23
2017-04-21T09:19:47.526Z,31.32
2017-04-21T09:20:52.331Z,30.72
2017-04-21T09:21:57.932Z,30.87
2017-04-21T09:23:03.569Z,29.12
2017-04-21T09:24:09.188Z,30.03
2017-04-21T09:25:15.576Z,28.67
2017-04-21T09:26:21.170Z,33.23
2017-04-21T09:27:26.022Z,32.78
2017-04-21T09:28:30.863Z,31.08
2017-04-21T09:29:37.054Z,30.08
2017-04-21T09:30:42.605Z,30.40
2017-04-21T09:31:47.337Z,31.78
2017-04-21T09:32:52.319Z,33.37
2017-04-21T09:34:33.322Z,33.38
2017-04-21T09:35:03.673Z,36.53
2017-04-21T09:36:09.207Z,33.20
2017-04-21T09:37:15.517Z,30.70
2017-04-21T09:38:20.182Z,34.57
2017-04-21T09:39:26.705Z,33.63
2017-04-21T09:40:31.462Z,31.95
2017-04-21T09:41:37.883Z,32.05
2017-04-21T09:42:42.510Z,33.42
2017-04-21T09:43:48.106Z,30.32
2017-04-21T09:44:53.751Z,35.33
2017-04-21T09:45:59.286Z,31.97
2017-04-21T09:47:04.896Z,31.97
2017-04-21T09:48:10.374Z,34.62
2017-04-21T09:49:15.940Z,32.33
2017-04-21T09:50:21.617Z,34.27
2017-04-21T09:51:27.922Z,32.13
2017-04-21T09:53:38.371Z,33.63
2017-04-21T09:54:12.371Z,34.77
2017-04-21T09:55:48.657Z,36.73
2017-04-21T09:56:03.418Z,33.15
2017-04-21T09:59:56.065Z,34.67
2017-04-21T10:00:04.612Z,35.08
2017-04-21T10:00:10.787Z,34.52
2017-04-21T10:01:22.008Z,33.22
2017-04-21T10:03:46.857Z,31.30
2017-04-21T10:04:39.788Z,32.10
2017-04-21T10:06:16.479Z,30.05
2017-04-21T10:06:41.022Z,32.90
2017-04-21T10:06:51.620Z,30.02
2017-04-21T10:07:59.736Z,33.05
2017-04-21T10:08:21.615Z,32.33
2017-04-21T10:08:50.989Z,31.83
2017-04-21T10:09:56.092Z,32.73
2017-04-21T10:11:00.761Z,31.00
2017-04-21T10:12:08.186Z,31.92
2017-04-21T10:13:13.037Z,33.42
2017-04-21T10:14:19.467Z,32.82
2017-04-21T10:15:24.946Z,31.00
2017-04-21T10:16:29.637Z,31.48
2017-04-21T10:17:35.409Z,28.78
2017-04-21T10:18:40.814Z,28.77
2017-04-21T10:19:46.289Z,33.72
2017-04-21T10:20:51.006Z,29.75
2017-04-21T10:21:56.569Z,28.08
2017-04-21T10:23:02.073Z,29.10
2017-04-21T10:24:07.553Z,27.77
2017-04-21T10:25:13.013Z,28.93
2017-04-21T10:26:18.577Z,27.37
2017-04-21T10:27:23.996Z,29.58
2017-04-21T10:28:29.669Z,29.32
2017-04-21T10:29:35.074Z,27.35
2017-04-21T10:30:42.194Z,27.60
2017-04-21T10:31:48.044Z,33.45
2017-04-21T10:32:52.850Z,32.42
2017-04-21T10:33:58.413Z,33.47
2017-04-21T10:35:04.536Z,31.75
2017-04-21T10:36:09.374Z,32.42
2017-04-21T10:37:15.048Z,33.78
2017-04-21T10:38:20.538Z,29.92
2017-04-21T10:39:26.803Z,32.35
2017-04-21T10:40:31.569Z,31.50
2017-04-21T10:41:37.084Z,32.10
2017-04-21T10:42:42.591Z,30.00
2017-04-21T10:43:48.043Z,31.60
2017-04-21T10:44:53.781Z,30.23
2017-04-21T10:45:59.252Z,32.57
2017-04-21T10:47:06.253Z,30.17
2017-04-21T10:48:11.368Z,31.20
2017-04-21T10:49:16.899Z,31.62
2017-04-21T10:50:23.473Z,30.47
2017-04-21T10:51:29.054Z,31.93
2017-04-21T10:52:34.613Z,30.30
2017-04-21T10:53:40.141Z,31.65
2017-04-21T10:54:46.432Z,33.32
2017-04-21T10:55:52.131Z,31.30
2017-04-21T10:56:57.610Z,30.37
2017-04-21T10:58:02.401Z,31.10
2017-04-21T10:59:07.940Z,32.43
2017-04-21T11:00:13.405Z,31.15
2017-04-21T11:01:19.937Z,31.38
2017-04-21T11:02:24.579Z,36.15
2017-04-21T11:03:31.022Z,34.47
2017-04-21T11:04:35.758Z,34.97
2017-04-21T11:05:41.280Z,33.40
2017-04-21T11:06:47.676Z,32.58
2017-04-21T11:07:52.425Z,32.05
2017-04-21T11:08:57.918Z,31.07
2017-04-21T11:10:04.330Z,32.17
2017-04-21T11:11:09.902Z,33.47
2017-04-21T11:12:16.746Z,32.83
2017-04-21T11:13:22.191Z,31.20
2017-04-21T11:14:26.961Z,32.38
2017-04-21T11:15:33.229Z,31.38
2017-04-21T11:16:38.096Z,33.18
2017-04-21T11:17:43.722Z,31.52
2017-04-21T11:18:49.156Z,31.47
2017-04-21T11:19:54.596Z,32.45
2017-04-21T11:21:00.176Z,33.78
2017-04-21T11:22:05.740Z,33.33
2017-04-21T11:23:12.249Z,32.00
2017-04-21T11:24:16.994Z,32.22
2017-04-21T11:25:22.585Z,32.70
2017-04-21T11:26:28.167Z,33.15
2017-04-21T11:27:33.932Z,29.82
2017-04-21T11:28:39.118Z,32.60
2017-04-21T11:29:45.336Z,32.85
2017-04-21T11:30:50.155Z,32.40
2017-04-21T11:31:54.844Z,32.10
2017-04-21T11:33:01.193Z,29.75
2017-04-21T11:34:06.884Z,34.07
2017-04-21T11:35:11.656Z,32.42
2017-04-21T11:36:17.171Z,32.82
2017-04-21T11:37:22.744Z,30.87
2017-04-21T11:38:29.832Z,32.92
2017-04-21T11:39:36.476Z,33.45
2017-04-21T11:40:41.274Z,34.00
2017-04-21T11:41:46.659Z,34.42
2017-04-21T11:42:52.290Z,34.32
2017-04-21T11:43:57.918Z,32.57
2017-04-21T11:45:03.468Z,30.32
2017-04-21T11:46:08.865Z,32.80
2017-04-21T11:47:13.860Z,32.37
2017-04-21T11:48:19.424Z,30.30
2017-04-21T11:49:25.628Z,31.12
2017-04-21T11:50:30.464Z,32.22
2017-04-21T11:51:36.085Z,33.17
2017-04-21T11:52:41.743Z,30.75
2017-04-21T11:53:48.000Z,31.78
2017-04-21T11:54:52.848Z,34.32
2017-04-21T11:55:58.525Z,35.43
2017-04-21T11:57:04.170Z,33.63
2017-04-21T11:58:09.653Z,33.32
2017-04-21T11:59:16.012Z,34.17
2017-04-21T12:00:20.882Z,35.72
2017-04-21T12:01:26.588Z,33.98
2017-04-21T12:02:32.728Z,32.97
2017-04-21T12:03:37.645Z,35.52
2017-04-21T12:04:43.050Z,33.92
2017-04-21T12:05:47.888Z,34.05
2017-04-21T12:06:53.410Z,33.48
2017-04-21T12:07:58.872Z,33.85
2017-04-21T12:09:04.832Z,35.70
2017-04-21T12:10:10.833Z,32.58
2017-04-21T12:11:15.625Z,34.70
2017-04-21T12:12:23.005Z,33.23
2017-04-21T12:13:27.784Z,35.37
2017-04-21T12:14:34.165Z,33.43
2017-04-21T12:15:39.686Z,31.27
2017-04-21T12:16:44.576Z,31.17
2017-04-21T12:17:50.160Z,28.88
2017-04-21T12:18:56.372Z,27.92
2017-04-21T12:20:01.292Z,27.88
2017-04-21T12:21:06.693Z,27.95
2017-04-21T12:22:13.005Z,28.28
2017-04-21T12:23:18.574Z,31.78
2017-04-21T12:24:23.394Z,30.98
2017-04-21T12:25:29.021Z,30.68
2017-04-21T12:26:34.543Z,30.40
2017-04-21T12:27:40.160Z,28.75
2017-04-21T12:28:45.849Z,31.45
2017-04-21T12:29:50.521Z,32.97
2017-04-21T12:30:56.172Z,30.68
2017-04-21T12:32:01.805Z,32.08
2017-04-21T12:33:08.169Z,31.58
2017-04-21T12:34:12.992Z,31.53
2017-04-21T12:35:18.333Z,35.07
2017-04-21T12:36:23.783Z,36.55
2017-04-21T12:37:29.260Z,33.17
2017-04-21T12:38:34.142Z,32.67
2017-04-21T12:39:41.685Z,33.77
2017-04-21T12:40:47.283Z,35.75
2017-04-21T12:41:52.084Z,34.53
2017-04-21T12:42:57.650Z,34.27
2017-04-21T12:44:03.185Z,35.57
2017-04-21T12:45:08.830Z,34.37
2017-04-21T12:46:15.651Z,33.17
2017-04-21T12:47:20.861Z,31.75
2017-04-21T12:48:26.314Z,36.88
2017-04-21T12:49:31.797Z,33.87
2017-04-21T12:50:37.400Z,34.67
2017-04-21T12:51:43.029Z,34.37
2017-04-21T12:52:48.651Z,32.95
2017-04-21T12:53:54.288Z,34.67
2017-04-21T12:55:00.637Z,35.35
2017-04-21T12:56:05.416Z,36.00
2017-04-21T12:57:10.981Z,36.63
2017-04-21T12:58:16.632Z,37.02
2017-04-21T12:59:22.876Z,34.42
2017-04-21T13:00:27.728Z,31.00
2017-04-21T13:01:33.376Z,35.48
2017-04-21T13:02:38.898Z,35.83
2017-04-21T13:03:45.694Z,36.20
2017-04-21T13:04:51.209Z,36.70
2017-04-21T13:05:57.013Z,35.63
2017-04-21T13:07:02.066Z,37.88
2017-04-21T13:08:09.153Z,37.20
2017-04-21T13:09:14.075Z,35.23
2017-04-21T13:10:21.165Z,36.50
2017-04-21T13:11:27.065Z,36.17
2017-04-21T13:12:33.766Z,35.18
2017-04-21T13:13:38.565Z,34.67
2017-04-21T13:14:44.048Z,37.03
2017-04-21T13:15:50.423Z,38.77
2017-04-21T13:16:55.312Z,35.52
2017-04-21T13:18:01.785Z,36.83
2017-04-21T13:19:06.509Z,36.13
2017-04-21T13:20:12.081Z,36.47
2017-04-21T13:21:17.608Z,36.72
2017-04-21T13:22:23.251Z,34.65
2017-04-21T13:23:29.600Z,35.57
2017-04-21T13:24:34.316Z,36.87
2017-04-21T13:25:39.824Z,35.45
2017-04-21T13:26:45.425Z,35.47
2017-04-21T13:27:50.869Z,34.42
2017-04-21T13:28:56.385Z,34.25
2017-04-21T13:30:02.724Z,32.27
2017-04-21T13:31:07.430Z,31.90
2017-04-21T13:32:12.961Z,33.95
2017-04-21T13:33:19.241Z,35.18
2017-04-21T13:34:26.228Z,33.95
2017-04-21T13:35:31.502Z,35.80
2017-04-21T13:36:37.945Z,31.20
2017-04-21T13:37:43.516Z,31.15
2017-04-21T13:38:49.046Z,33.10
2017-04-21T13:39:55.892Z,31.78
2017-04-21T13:41:00.700Z,30.93
2017-04-21T13:42:06.300Z,31.13
2017-04-21T13:43:11.944Z,29.50
2017-04-21T13:44:17.455Z,28.67
2017-04-21T13:45:23.125Z,28.75
2017-04-21T13:46:29.445Z,29.13
2017-04-21T13:47:35.150Z,30.70
2017-04-21T13:48:39.952Z,31.73
2017-04-21T13:49:45.521Z,29.65
2017-04-21T13:50:51.060Z,31.55
2017-04-21T13:51:56.620Z,32.85
2017-04-21T13:53:01.349Z,29.95
2017-04-21T13:54:06.804Z,29.48
2017-04-21T13:55:12.367Z,30.43
2017-04-21T13:56:17.982Z,30.58
2017-04-21T13:57:22.757Z,31.08
2017-04-21T13:58:27.418Z,33.30
2017-04-21T13:59:32.736Z,30.85
2017-04-21T14:00:38.673Z,30.22
2017-04-21T14:01:44.591Z,29.33
2017-04-21T14:02:50.056Z,29.25
2017-04-21T14:03:56.107Z,30.38
2017-04-21T14:05:01.284Z,30.90